createdAt,value
2022-09-13T00:03:45.794Z,100.00
2022-09-13T00:08:38.603Z,100.00
2022-09-13T00:13:29.013Z,100.00
2022-09-13T00:18:22.525Z,100.00
2022-09-13T00:23:16.055Z,100.00
2022-09-13T00:28:08.805Z,100.00
2022-09-13T00:32:59.342Z,100.00
2022-09-13T00:37:55.056Z,100.00
2022-09-13T00:42:48.556Z,100.00
2022-09-13T00:47:43.642Z,100.00
2022-09-13T00:52:37.439Z,100.00
2022-09-13T00:57:35.233Z,100.00
2022-09-13T01:02:26.160Z,100.00
2022-09-13T01:07:20.752Z,100.00
2022-09-13T01:12:22.223Z,100.00
2022-09-13T01:17:15.549Z,100.00
2022-09-13T01:22:40.171Z,100.00
2022-09-13T01:27:44.041Z,100.00
2022-09-13T01:32:58.332Z,100.00
2022-09-13T01:37:56.493Z,100.00
2022-09-13T01:43:10.336Z,100.00
2022-09-13T01:48:11.428Z,100.00
2022-09-13T01:53:07.517Z,100.00
2022-09-13T01:58:06.564Z,100.00
2022-09-13T02:03:08.843Z,100.00
2022-09-13T02:08:07.778Z,100.00
2022-09-13T02:13:00.243Z,100.00
2022-09-13T02:17:56.753Z,100.00
2022-09-13T02:22:51.687Z,100.00
2022-09-13T02:27:51.823Z,100.00
2022-09-13T02:32:47.032Z,100.00
2022-09-13T02:37:41.555Z,100.00
2022-09-13T02:42:39.429Z,100.00
2022-09-13T02:47:42.188Z,100.00
2022-09-13T02:52:42.601Z,100.00
2022-09-13T02:57:41.889Z,100.00
2022-09-13T03:02:37.086Z,100.00
2022-09-13T03:07:40.265Z,100.00
2022-09-13T03:12:51.046Z,100.00
2022-09-13T03:17:58.677Z,100.00
2022-09-13T03:23:17.270Z,100.00
2022-09-13T03:28:20.901Z,100.00
2022-09-13T03:33:24.033Z,100.00
2022-09-13T03:38:20.022Z,100.00
2022-09-13T03:43:17.261Z,100.00
2022-09-13T03:48:11.320Z,100.00
2022-09-13T03:53:11.434Z,100.00
2022-09-13T03:58:01.756Z,100.00
2022-09-13T04:02:55.943Z,100.00
2022-09-13T04:07:46.436Z,100.00
2022-09-13T04:12:41.652Z,100.00
2022-09-13T04:17:33.558Z,100.00
2022-09-13T04:22:23.933Z,100.00
2022-09-13T04:27:14.740Z,100.00
2022-09-13T04:32:09.508Z,100.00
2022-09-13T04:37:05.524Z,100.00
2022-09-13T04:41:57.548Z,100.00
2022-09-13T04:46:50.994Z,100.00
2022-09-13T04:51:44.040Z,100.00
2022-09-13T04:56:34.420Z,100.00
2022-09-13T05:01:28.024Z,100.00
2022-09-13T05:06:24.600Z,100.00
2022-09-13T05:11:17.448Z,100.00
2022-09-13T05:16:10.308Z,100.00
2022-09-13T05:21:02.949Z,100.00
2022-09-13T05:25:57.096Z,100.00
2022-09-13T05:30:58.725Z,100.00
2022-09-13T05:35:49.676Z,100.00
2022-09-13T05:40:40.144Z,100.00
2022-09-13T05:45:33.087Z,100.00
2022-09-13T05:50:56.017Z,100.00
2022-09-13T05:55:42.129Z,100.00
2022-09-13T06:00:34.190Z,100.00
2022-09-13T06:05:31.875Z,100.00
2022-09-13T06:10:24.601Z,100.00
2022-09-13T06:15:15.867Z,100.00
2022-09-13T06:20:07.328Z,100.00
2022-09-13T06:25:00.948Z,100.00
2022-09-13T06:29:52.737Z,100.00
2022-09-13T06:34:43.180Z,100.00
2022-09-13T06:39:34.603Z,100.00
2022-09-13T06:44:27.268Z,100.00
2022-09-13T06:49:17.930Z,100.00
2022-09-13T06:54:07.769Z,100.00
2022-09-13T06:59:00.154Z,100.00
2022-09-13T07:03:54.401Z,100.00
2022-09-13T07:08:45.368Z,100.00
2022-09-13T07:13:36.329Z,100.00
2022-09-13T07:18:26.205Z,100.00
2022-09-13T07:23:18.360Z,100.00
2022-09-13T07:28:08.031Z,100.00
2022-09-13T07:32:57.622Z,100.00
2022-09-13T07:37:49.486Z,100.00
2022-09-13T07:42:41.890Z,100.00
2022-09-13T07:47:31.533Z,100.00
2022-09-13T07:52:21.689Z,100.00
2022-09-13T07:57:13.219Z,100.00
2022-09-13T08:02:05.574Z,100.00
2022-09-13T08:06:55.951Z,100.00
2022-09-13T08:11:47.857Z,100.00
2022-09-13T08:16:39.562Z,100.00
2022-09-13T08:21:36.227Z,100.00
2022-09-13T08:26:26.156Z,100.00
2022-09-13T08:31:20.009Z,100.00
2022-09-13T08:36:09.739Z,100.00
2022-09-13T08:41:08.113Z,100.00
2022-09-13T08:46:04.547Z,100.00
2022-09-13T08:51:02.749Z,100.00
2022-09-13T08:56:06.361Z,100.00
2022-09-13T09:01:03.817Z,100.00
2022-09-13T09:05:54.594Z,100.00
2022-09-13T09:10:48.141Z,100.00
2022-09-13T09:15:45.208Z,100.00
2022-09-13T09:20:39.846Z,100.00
2022-09-13T09:25:30.059Z,100.00
2022-09-13T09:30:20.078Z,100.00
2022-09-13T09:35:21.226Z,100.00
2022-09-13T09:40:17.536Z,100.00
2022-09-13T09:45:18.875Z,100.00
2022-09-13T09:50:18.538Z,100.00
2022-09-13T09:55:22.803Z,100.00
2022-09-13T10:00:15.525Z,100.00
2022-09-13T10:05:07.256Z,100.00
2022-09-13T10:10:04.980Z,100.00
2022-09-13T10:14:59.115Z,100.00
2022-09-13T10:20:01.556Z,100.00
2022-09-13T10:24:51.400Z,100.00
2022-09-13T10:29:50.653Z,100.00
2022-09-13T10:34:40.528Z,100.00
2022-09-13T10:39:33.984Z,100.00
2022-09-13T10:44:31.896Z,98.61
2022-09-13T10:49:48.942Z,98.50
2022-09-13T10:54:38.522Z,100.00
2022-09-13T10:59:30.692Z,99.91
2022-09-13T11:04:39.294Z,99.56
2022-09-13T11:09:36.703Z,100.00
2022-09-13T11:14:42.792Z,99.87
2022-09-13T11:19:56.328Z,98.65
2022-09-13T11:25:01.469Z,96.75
2022-09-13T11:30:11.356Z,96.53
2022-09-13T11:35:20.708Z,97.85
2022-09-13T11:40:34.568Z,96.78
2022-09-13T11:45:28.477Z,96.47
2022-09-13T11:50:43.839Z,94.17
2022-09-13T11:55:41.936Z,95.38
2022-09-13T12:00:37.726Z,94.21
2022-09-13T12:05:31.323Z,94.21
2022-09-13T12:10:25.729Z,92.83
2022-09-13T12:15:24.044Z,92.22
2022-09-13T12:20:23.027Z,89.75
2022-09-13T12:25:24.279Z,91.00
2022-09-13T12:30:22.449Z,89.59
2022-09-13T12:35:22.399Z,89.68
2022-09-13T12:40:39.616Z,88.90
2022-09-13T12:45:46.058Z,89.98
2022-09-13T12:50:48.991Z,89.38
2022-09-13T12:56:04.875Z,85.11
2022-09-13T13:01:11.773Z,87.91
2022-09-13T13:06:12.739Z,88.79
2022-09-13T13:11:05.741Z,89.43
2022-09-13T13:16:09.276Z,89.21
2022-09-13T13:21:34.451Z,88.45
2022-09-13T13:26:49.703Z,88.49
2022-09-13T13:31:44.216Z,88.55
2022-09-13T13:36:45.424Z,88.81
2022-09-13T13:41:43.469Z,87.92
2022-09-13T13:46:35.109Z,87.58
2022-09-13T13:51:28.594Z,83.78
2022-09-13T13:56:24.038Z,86.30
2022-09-13T14:01:19.664Z,84.91
2022-09-13T14:06:17.838Z,82.97
2022-09-13T14:11:25.241Z,79.81
2022-09-13T14:16:31.126Z,82.53
2022-09-13T14:21:28.206Z,82.85
2022-09-13T14:26:20.636Z,81.54
2022-09-13T14:31:10.697Z,81.73
2022-09-13T14:36:03.596Z,80.75
2022-09-13T14:40:55.853Z,81.24
2022-09-13T14:45:51.258Z,77.98
2022-09-13T14:50:44.962Z,80.10
2022-09-13T14:55:40.501Z,79.17
2022-09-13T15:00:32.632Z,78.33
2022-09-13T15:05:27.555Z,78.01
2022-09-13T15:10:28.397Z,72.17
2022-09-13T15:15:36.024Z,69.95
2022-09-13T15:20:30.772Z,69.92
2022-09-13T15:25:22.722Z,69.91
2022-09-13T15:30:23.636Z,68.68
2022-09-13T15:35:20.639Z,68.65
2022-09-13T15:40:24.469Z,70.93
2022-09-13T15:45:14.224Z,72.49
2022-09-13T15:50:03.610Z,71.53
2022-09-13T15:54:53.627Z,70.94
2022-09-13T15:59:45.696Z,69.28
2022-09-13T16:04:35.052Z,71.90
2022-09-13T16:09:25.141Z,72.83
2022-09-13T16:14:14.542Z,74.41
2022-09-13T16:19:06.669Z,76.43
2022-09-13T16:23:56.125Z,76.82
2022-09-13T16:28:45.583Z,77.48
2022-09-13T16:33:34.997Z,78.60
2022-09-13T16:38:31.003Z,78.38
2022-09-13T16:43:20.782Z,78.88
2022-09-13T16:48:11.188Z,79.78
2022-09-13T16:53:00.851Z,80.15
2022-09-13T16:57:53.163Z,81.29
2022-09-13T17:02:42.844Z,81.64
2022-09-13T17:07:32.476Z,82.11
2022-09-13T17:12:21.932Z,82.38
2022-09-13T17:17:14.466Z,83.40
2022-09-13T17:22:08.125Z,84.11
2022-09-13T17:26:58.012Z,84.91
2022-09-13T17:31:47.649Z,84.82
2022-09-13T17:36:41.524Z,85.49
2022-09-13T17:41:32.083Z,86.62
2022-09-13T17:46:24.269Z,87.26
2022-09-13T17:51:14.892Z,87.93
2022-09-13T17:56:07.685Z,88.65
2022-09-13T18:01:02.790Z,88.46
2022-09-13T18:05:57.086Z,89.19
2022-09-13T18:11:10.213Z,89.49
2022-09-13T18:16:05.556Z,89.45
2022-09-13T18:20:55.033Z,89.90
2022-09-13T18:25:44.877Z,89.72
2022-09-13T18:30:34.343Z,90.83
2022-09-13T18:35:26.645Z,90.77
2022-09-13T18:40:17.995Z,91.29
2022-09-13T18:45:09.544Z,90.72
2022-09-13T18:49:59.801Z,91.25
2022-09-13T18:54:53.145Z,91.82
2022-09-13T18:59:44.023Z,91.78
2022-09-13T19:04:37.452Z,91.46
2022-09-13T19:09:28.140Z,91.81
2022-09-13T19:14:21.796Z,92.17
2022-09-13T19:19:11.828Z,92.85
2022-09-13T19:24:08.119Z,93.91
2022-09-13T19:29:04.383Z,93.77
2022-09-13T19:33:57.765Z,93.95
2022-09-13T19:38:47.703Z,94.47
2022-09-13T19:43:38.446Z,94.59
2022-09-13T19:48:44.421Z,93.36
2022-09-13T19:53:56.091Z,93.83
2022-09-13T19:58:47.228Z,93.58
2022-09-13T20:03:36.884Z,93.86
2022-09-13T20:08:27.686Z,94.31
2022-09-13T20:13:20.699Z,94.66
2022-09-13T20:18:16.393Z,94.47
2022-09-13T20:23:08.951Z,94.05
2022-09-13T20:27:58.506Z,92.66
2022-09-13T20:32:51.181Z,93.64
2022-09-13T20:37:41.526Z,94.03
2022-09-13T20:42:31.281Z,93.39
2022-09-13T20:47:20.898Z,93.37
2022-09-13T20:52:14.085Z,94.04
2022-09-13T20:57:04.224Z,93.44
2022-09-13T21:01:55.171Z,93.60
2022-09-13T21:07:05.397Z,93.89
2022-09-13T21:11:57.521Z,93.28
2022-09-13T21:16:47.194Z,93.00
2022-09-13T21:21:37.546Z,93.15
2022-09-13T21:26:28.415Z,92.26
2022-09-13T21:31:22.707Z,92.90
2022-09-13T21:36:12.811Z,93.70
2022-09-13T21:41:03.009Z,93.77
2022-09-13T21:46:01.167Z,94.68
2022-09-13T21:50:53.237Z,95.09
2022-09-13T21:55:42.917Z,95.48
2022-09-13T22:00:32.347Z,95.42
2022-09-13T22:05:24.068Z,95.01
2022-09-13T22:10:16.092Z,94.88
2022-09-13T22:15:05.812Z,95.12
2022-09-13T22:19:55.515Z,94.61
2022-09-13T22:24:46.163Z,94.13
2022-09-13T22:29:38.660Z,94.20
2022-09-13T22:34:31.045Z,94.68
2022-09-13T22:39:20.610Z,94.46
2022-09-13T22:44:10.623Z,92.54
2022-09-13T22:49:03.217Z,92.40
2022-09-13T22:53:55.116Z,92.63
2022-09-13T22:58:45.338Z,93.18
2022-09-13T23:03:36.509Z,93.94
2022-09-13T23:08:28.917Z,94.46
2022-09-13T23:13:18.460Z,95.10
2022-09-13T23:18:09.672Z,99.98
2022-09-13T23:22:59.319Z,100.00
2022-09-13T23:27:51.565Z,100.00
2022-09-13T23:32:41.283Z,100.00
2022-09-13T23:37:31.262Z,100.00
2022-09-13T23:42:21.424Z,99.03
2022-09-13T23:47:14.668Z,100.00
2022-09-13T23:52:04.465Z,99.95
2022-09-13T23:56:54.136Z,100.00
